createdAt,value
2022-10-04T00:01:55.144Z,99.90
2022-10-04T00:04:51.145Z,99.90
2022-10-04T00:07:26.525Z,99.90
2022-10-04T00:10:01.867Z,99.90
2022-10-04T00:12:53.466Z,99.90
2022-10-04T00:15:27.809Z,99.90
2022-10-04T00:18:16.785Z,99.90
2022-10-04T00:20:50.230Z,99.90
2022-10-04T00:23:23.361Z,99.90
2022-10-04T00:25:50.735Z,99.90
2022-10-04T00:28:20.807Z,99.90
2022-10-04T00:31:12.537Z,99.90
2022-10-04T00:33:49.015Z,99.90
2022-10-04T00:36:25.060Z,99.90
2022-10-04T00:39:04.479Z,99.90
2022-10-04T00:41:49.637Z,99.90
2022-10-04T00:44:41.153Z,99.90
2022-10-04T00:47:35.939Z,99.90
2022-10-04T00:50:29.262Z,99.90
2022-10-04T00:52:59.310Z,99.90
2022-10-04T00:55:31.815Z,99.90
2022-10-04T00:58:03.087Z,99.90
2022-10-04T01:00:31.926Z,99.90
2022-10-04T01:03:06.291Z,99.90
2022-10-04T01:05:36.152Z,99.90
2022-10-04T01:08:14.678Z,99.90
2022-10-04T01:10:49.275Z,99.90
2022-10-04T01:13:27.733Z,99.90
2022-10-04T01:16:06.530Z,99.90
2022-10-04T01:18:35.474Z,99.90
2022-10-04T01:21:21.606Z,99.90
2022-10-04T01:24:21.157Z,99.90
2022-10-04T01:26:48.563Z,99.90
2022-10-04T01:29:24.876Z,99.90
2022-10-04T01:31:54.636Z,99.90
2022-10-04T01:34:26.630Z,99.90
2022-10-04T01:36:57.093Z,99.90
2022-10-04T01:39:25.839Z,99.90
2022-10-04T01:42:20.900Z,99.90
2022-10-04T01:45:11.903Z,99.90
2022-10-04T01:47:55.948Z,99.90
2022-10-04T01:50:45.254Z,99.90
2022-10-04T01:53:21.533Z,99.90
2022-10-04T01:55:55.702Z,99.90
2022-10-04T01:58:29.038Z,99.90
2022-10-04T02:03:38.279Z,99.90
2022-10-04T02:06:10.698Z,99.90
2022-10-04T02:08:45.454Z,99.90
2022-10-04T02:11:20.085Z,99.90
2022-10-04T02:13:50.397Z,99.90
2022-10-04T02:16:19.964Z,99.90
2022-10-04T02:18:49.513Z,99.90
2022-10-04T02:21:18.893Z,99.90
2022-10-04T02:23:51.375Z,99.90
2022-10-04T02:26:18.758Z,99.90
2022-10-04T02:28:45.860Z,99.90
2022-10-04T02:31:13.365Z,99.90
2022-10-04T02:33:49.412Z,99.90
2022-10-04T02:36:18.033Z,99.90
2022-10-04T02:39:08.238Z,99.90
2022-10-04T02:41:56.097Z,99.90
2022-10-04T02:44:41.100Z,99.90
2022-10-04T02:47:24.815Z,99.90
2022-10-04T02:50:24.372Z,99.90
2022-10-04T02:52:58.542Z,99.90
2022-10-04T02:55:29.458Z,99.90
2022-10-04T02:58:00.542Z,99.90
2022-10-04T03:00:32.438Z,99.90
2022-10-04T03:03:25.720Z,99.90
2022-10-04T03:06:18.861Z,99.90
2022-10-04T03:08:51.403Z,99.90
2022-10-04T03:11:21.516Z,99.90
2022-10-04T03:13:54.850Z,99.90
2022-10-04T03:16:22.817Z,99.90
2022-10-04T03:18:51.778Z,99.90
2022-10-04T03:21:21.658Z,99.90
2022-10-04T03:23:50.803Z,99.90
2022-10-04T03:26:30.018Z,99.90
2022-10-04T03:28:58.720Z,99.90
2022-10-04T03:31:28.330Z,99.90
2022-10-04T03:33:57.286Z,99.90
2022-10-04T03:36:26.779Z,99.90
2022-10-04T03:38:56.030Z,99.90
2022-10-04T03:41:25.951Z,99.90
2022-10-04T03:43:54.922Z,99.90
2022-10-04T03:46:23.635Z,99.90
2022-10-04T03:48:53.380Z,99.90
2022-10-04T03:51:25.955Z,99.90
2022-10-04T03:53:59.548Z,99.90
2022-10-04T03:56:30.910Z,99.90
2022-10-04T03:59:02.366Z,99.90
2022-10-04T04:01:42.901Z,99.90
2022-10-04T04:04:32.775Z,99.90
2022-10-04T04:07:20.450Z,99.90
2022-10-04T04:10:14.476Z,99.90
2022-10-04T04:12:49.556Z,99.90
2022-10-04T04:15:17.417Z,99.90
2022-10-04T04:17:47.262Z,99.90
2022-10-04T04:20:22.561Z,99.90
2022-10-04T04:23:05.142Z,99.90
2022-10-04T04:25:34.979Z,99.90
2022-10-04T04:28:23.505Z,99.90
2022-10-04T04:30:54.900Z,99.90
2022-10-04T04:33:41.012Z,99.90
2022-10-04T04:36:12.588Z,99.90
2022-10-04T04:38:39.941Z,99.90
2022-10-04T04:41:10.599Z,99.90
2022-10-04T04:43:45.456Z,99.90
2022-10-04T04:46:27.027Z,99.90
2022-10-04T04:49:02.178Z,99.90
2022-10-04T04:51:33.344Z,99.90
2022-10-04T04:54:03.716Z,99.90
2022-10-04T04:56:31.682Z,99.90
2022-10-04T04:59:06.414Z,99.90
2022-10-04T05:01:43.665Z,99.90
2022-10-04T05:04:10.997Z,99.90
2022-10-04T05:06:44.462Z,99.90
2022-10-04T05:09:32.476Z,99.90
2022-10-04T05:12:25.622Z,99.90
2022-10-04T05:14:54.502Z,99.90
2022-10-04T05:17:27.752Z,99.90
2022-10-04T05:19:59.254Z,99.90
2022-10-04T05:22:28.652Z,99.90
2022-10-04T05:25:07.862Z,99.90
2022-10-04T05:27:47.189Z,99.90
2022-10-04T05:30:20.292Z,99.90
2022-10-04T05:32:50.552Z,99.90
2022-10-04T05:35:20.219Z,99.90
2022-10-04T05:38:09.132Z,99.90
2022-10-04T05:40:58.477Z,99.90
2022-10-04T05:43:31.757Z,99.90
2022-10-04T05:46:17.407Z,99.90
2022-10-04T05:48:47.284Z,99.90
2022-10-04T05:51:28.176Z,99.90
2022-10-04T05:53:59.780Z,99.90
2022-10-04T05:56:39.380Z,99.90
2022-10-04T05:59:25.465Z,99.90
2022-10-04T06:02:27.754Z,99.90
2022-10-04T06:05:16.140Z,99.90
2022-10-04T06:07:58.444Z,99.90
2022-10-04T06:10:44.327Z,99.90
2022-10-04T06:13:20.823Z,99.90
2022-10-04T06:15:59.341Z,99.90
2022-10-04T06:18:42.134Z,99.90
2022-10-04T06:21:35.271Z,99.90
2022-10-04T06:24:11.456Z,99.90
2022-10-04T06:26:44.222Z,99.90
2022-10-04T06:29:17.124Z,99.90
2022-10-04T06:32:20.599Z,99.90
2022-10-04T06:35:06.831Z,99.90
2022-10-04T06:38:02.599Z,99.90
2022-10-04T06:40:39.770Z,99.90
2022-10-04T06:43:33.373Z,99.90
2022-10-04T06:46:34.436Z,99.90
2022-10-04T06:49:16.834Z,99.90
2022-10-04T06:51:56.326Z,99.90
2022-10-04T06:54:32.048Z,99.90
2022-10-04T06:57:17.446Z,99.90
2022-10-04T06:59:53.473Z,99.90
2022-10-04T07:02:29.053Z,99.90
2022-10-04T07:05:23.334Z,99.90
2022-10-04T07:07:57.346Z,99.90
2022-10-04T07:10:36.172Z,99.90
2022-10-04T07:13:09.696Z,99.90
2022-10-04T07:15:52.425Z,99.90
2022-10-04T07:18:44.776Z,99.90
2022-10-04T07:21:15.944Z,99.90
2022-10-04T07:23:49.427Z,99.90
2022-10-04T07:26:29.063Z,99.90
2022-10-04T07:29:02.967Z,99.90
2022-10-04T07:31:30.805Z,99.90
2022-10-04T07:34:10.179Z,99.90
2022-10-04T07:36:50.962Z,99.90
2022-10-04T07:39:28.000Z,99.90
2022-10-04T07:42:28.265Z,99.90
2022-10-04T07:45:19.420Z,99.90
2022-10-04T07:47:46.732Z,99.90
2022-10-04T07:50:34.594Z,99.90
2022-10-04T07:53:09.785Z,99.90
2022-10-04T07:56:06.213Z,99.90
2022-10-04T07:59:03.873Z,99.90
2022-10-04T08:01:42.915Z,99.90
2022-10-04T08:04:31.495Z,99.90
2022-10-04T08:07:10.803Z,99.90
2022-10-04T08:10:05.819Z,99.90
2022-10-04T08:12:39.221Z,99.90
2022-10-04T08:15:35.154Z,99.90
2022-10-04T08:18:43.507Z,99.90
2022-10-04T08:21:17.277Z,99.90
2022-10-04T08:23:56.137Z,99.90
2022-10-04T08:26:29.315Z,99.90
2022-10-04T08:29:19.725Z,99.90
2022-10-04T08:32:01.834Z,99.90
2022-10-04T08:35:02.921Z,99.90
2022-10-04T08:37:44.307Z,99.90
2022-10-04T08:40:42.098Z,99.90
2022-10-04T08:43:39.243Z,99.90
2022-10-04T08:46:33.577Z,99.90
2022-10-04T08:49:15.702Z,99.50
2022-10-04T08:52:08.763Z,95.00
2022-10-04T08:54:45.108Z,88.30
2022-10-04T08:57:18.799Z,86.00
2022-10-04T09:00:13.099Z,86.10
2022-10-04T09:02:59.117Z,83.60
2022-10-04T09:05:56.230Z,78.10
2022-10-04T09:08:26.601Z,73.70
2022-10-04T09:11:28.715Z,70.50
2022-10-04T09:14:23.881Z,70.50
2022-10-04T09:17:38.481Z,70.40
2022-10-04T09:20:39.847Z,70.60
2022-10-04T09:23:31.738Z,71.70
2022-10-04T09:26:07.939Z,73.10
2022-10-04T09:28:59.142Z,74.40
2022-10-04T09:31:56.285Z,76.90
2022-10-04T09:35:14.191Z,79.00
2022-10-04T09:37:56.658Z,82.50
2022-10-04T09:40:57.296Z,84.60
2022-10-04T09:43:33.783Z,86.50
2022-10-04T09:46:14.862Z,87.40
2022-10-04T09:48:48.422Z,87.50
2022-10-04T09:51:21.422Z,87.50
2022-10-04T09:54:10.018Z,88.70
2022-10-04T09:57:06.606Z,90.00
2022-10-04T10:00:11.324Z,90.10
2022-10-04T10:03:15.972Z,89.00
2022-10-04T10:06:05.134Z,82.70
2022-10-04T10:08:57.710Z,73.40
2022-10-04T10:11:47.961Z,66.90
2022-10-04T10:14:45.846Z,60.10
2022-10-04T10:17:45.447Z,54.30
2022-10-04T10:20:32.944Z,51.10
2022-10-04T10:23:12.194Z,52.20
2022-10-04T10:26:03.667Z,53.50
2022-10-04T10:29:09.327Z,56.00
2022-10-04T10:31:54.455Z,58.10
2022-10-04T10:34:41.113Z,58.70
2022-10-04T10:37:32.896Z,58.40
2022-10-04T10:40:37.991Z,56.50
2022-10-04T10:43:08.338Z,53.90
2022-10-04T10:46:01.440Z,52.80
2022-10-04T10:49:07.071Z,52.80
2022-10-04T10:52:11.955Z,53.60
2022-10-04T10:54:45.344Z,56.10
2022-10-04T10:57:32.611Z,59.20
2022-10-04T11:00:13.767Z,61.90
2022-10-04T11:03:14.638Z,60.90
2022-10-04T11:06:11.144Z,56.90
2022-10-04T11:09:05.854Z,54.00
2022-10-04T11:12:10.574Z,52.60
2022-10-04T11:14:40.867Z,51.80
2022-10-04T11:17:28.794Z,51.30
2022-10-04T11:20:20.750Z,50.70
2022-10-04T11:22:56.647Z,51.70
2022-10-04T11:25:57.293Z,54.40
2022-10-04T11:28:48.220Z,56.90
2022-10-04T11:32:02.813Z,59.90
2022-10-04T11:34:54.718Z,60.50
2022-10-04T11:37:52.442Z,64.10
2022-10-04T11:40:28.664Z,66.90
2022-10-04T11:43:35.657Z,69.50
2022-10-04T11:46:10.895Z,71.70
2022-10-04T11:49:13.057Z,72.60
2022-10-04T11:52:09.121Z,73.50
2022-10-04T11:55:00.556Z,74.60
2022-10-04T11:57:50.195Z,74.90
2022-10-04T12:00:22.181Z,76.00
2022-10-04T12:03:11.685Z,77.00
2022-10-04T12:05:45.355Z,77.60
2022-10-04T12:08:33.416Z,78.40
2022-10-04T12:11:20.040Z,78.30
2022-10-04T12:13:53.059Z,79.40
2022-10-04T12:16:32.551Z,79.50
2022-10-04T12:19:36.754Z,79.50
2022-10-04T12:22:27.563Z,80.20
2022-10-04T12:25:33.495Z,80.30
2022-10-04T12:28:21.672Z,79.90
2022-10-04T12:30:54.523Z,80.00
2022-10-04T12:33:43.199Z,80.80
2022-10-04T12:36:13.809Z,81.60
2022-10-04T12:38:50.153Z,82.50
2022-10-04T12:41:26.093Z,83.30
2022-10-04T12:43:56.315Z,84.70
2022-10-04T12:46:43.509Z,85.20
2022-10-04T12:49:38.491Z,85.80
2022-10-04T12:52:08.556Z,86.10
2022-10-04T12:55:31.055Z,86.50
2022-10-04T12:58:07.544Z,87.20
2022-10-04T13:00:43.771Z,87.30
2022-10-04T13:03:37.383Z,87.50
2022-10-04T13:06:21.497Z,87.40
2022-10-04T13:09:04.747Z,88.70
2022-10-04T13:11:53.188Z,86.90
2022-10-04T13:14:41.792Z,86.20
2022-10-04T13:17:34.519Z,83.70
2022-10-04T13:20:40.244Z,83.80
2022-10-04T13:23:36.719Z,84.40
2022-10-04T13:26:41.051Z,85.40
2022-10-04T13:29:17.749Z,86.00
2022-10-04T13:32:11.867Z,86.30
2022-10-04T13:34:57.765Z,86.90
2022-10-04T13:37:43.357Z,86.80
2022-10-04T13:40:42.316Z,86.00
2022-10-04T13:43:34.640Z,86.40
2022-10-04T13:46:42.625Z,86.20
2022-10-04T13:49:47.295Z,85.40
2022-10-04T13:52:37.779Z,85.80
2022-10-04T13:55:04.991Z,86.40
2022-10-04T13:58:09.109Z,87.40
2022-10-04T14:01:11.239Z,87.60
2022-10-04T14:04:06.727Z,87.30
2022-10-04T14:07:02.877Z,88.30
2022-10-04T14:09:45.394Z,88.80
2022-10-04T14:12:31.089Z,90.00
2022-10-04T14:15:09.957Z,90.00
2022-10-04T14:17:56.088Z,90.50
2022-10-04T14:20:54.755Z,90.70
2022-10-04T14:23:53.706Z,90.60
2022-10-04T14:26:30.059Z,91.00
2022-10-04T14:29:03.130Z,91.50
2022-10-04T14:32:02.554Z,91.60
2022-10-04T14:34:49.087Z,92.00
2022-10-04T14:37:40.463Z,92.40
2022-10-04T14:40:26.512Z,92.70
2022-10-04T14:43:17.078Z,92.80
2022-10-04T14:46:07.314Z,93.00
2022-10-04T14:49:07.102Z,93.10
2022-10-04T14:51:53.057Z,93.10
2022-10-04T14:54:23.494Z,93.10
2022-10-04T14:57:12.176Z,93.30
2022-10-04T14:59:58.081Z,93.50
2022-10-04T15:02:28.561Z,93.70
2022-10-04T15:05:29.790Z,94.00
2022-10-04T15:08:22.761Z,94.40
2022-10-04T15:11:04.995Z,94.60
2022-10-04T15:13:55.150Z,95.00
2022-10-04T15:16:44.869Z,95.50
2022-10-04T15:19:21.694Z,95.80
2022-10-04T15:21:55.481Z,96.40
2022-10-04T15:24:28.139Z,96.60
2022-10-04T15:27:20.218Z,97.00
2022-10-04T15:30:00.895Z,97.10
2022-10-04T15:32:35.466Z,97.50
2022-10-04T15:35:21.386Z,97.80
2022-10-04T15:38:15.345Z,98.00
2022-10-04T15:41:01.012Z,98.30
2022-10-04T15:44:09.567Z,98.70
2022-10-04T15:47:05.097Z,99.30
2022-10-04T15:50:07.099Z,99.80
2022-10-04T15:53:14.981Z,99.90
2022-10-04T15:55:49.444Z,99.90
2022-10-04T15:58:34.866Z,99.90
2022-10-04T16:01:38.744Z,99.90
2022-10-04T16:04:34.861Z,99.90
2022-10-04T16:07:08.189Z,99.90
2022-10-04T16:10:07.250Z,99.90
2022-10-04T16:13:03.998Z,99.90
2022-10-04T16:15:38.498Z,99.90
2022-10-04T16:18:36.420Z,99.90
2022-10-04T16:21:31.194Z,99.90
2022-10-04T16:24:19.987Z,99.90
2022-10-04T16:26:47.745Z,99.90
2022-10-04T16:29:38.620Z,99.90
2022-10-04T16:32:20.567Z,99.90
2022-10-04T16:34:53.357Z,99.90
2022-10-04T16:37:38.570Z,99.90
2022-10-04T16:40:26.232Z,99.90
2022-10-04T16:43:09.396Z,99.90
2022-10-04T16:45:58.636Z,99.90
2022-10-04T16:48:34.753Z,99.90
2022-10-04T16:51:04.885Z,99.90
2022-10-04T16:53:43.940Z,99.90
2022-10-04T16:56:23.599Z,99.90
2022-10-04T16:59:01.654Z,99.90
2022-10-04T17:01:38.270Z,99.90
2022-10-04T17:04:28.140Z,99.90
2022-10-04T17:07:13.132Z,99.90
2022-10-04T17:10:01.359Z,99.90
2022-10-04T17:12:47.313Z,99.90
2022-10-04T17:15:41.497Z,99.90
2022-10-04T17:18:47.743Z,99.90
2022-10-04T17:21:29.725Z,99.90
2022-10-04T17:24:29.269Z,99.90
2022-10-04T17:27:05.821Z,99.90
2022-10-04T17:29:58.043Z,99.90
2022-10-04T17:32:46.794Z,99.90
2022-10-04T17:35:41.696Z,99.90
2022-10-04T17:38:17.217Z,99.90
2022-10-04T17:40:50.683Z,99.90
2022-10-04T17:43:27.019Z,99.90
2022-10-04T17:46:22.773Z,99.90
2022-10-04T17:49:10.768Z,99.90
2022-10-04T17:51:50.099Z,99.90
2022-10-04T17:54:21.761Z,99.90
2022-10-04T17:57:03.212Z,99.90
2022-10-04T17:59:40.799Z,99.90
2022-10-04T18:02:20.062Z,99.90
2022-10-04T18:05:00.628Z,99.90
2022-10-04T18:07:39.134Z,99.90
2022-10-04T18:10:35.657Z,99.90
2022-10-04T18:13:20.738Z,99.90
2022-10-04T18:16:05.853Z,99.90
2022-10-04T18:18:44.018Z,99.90
2022-10-04T18:21:23.148Z,99.90
2022-10-04T18:23:56.872Z,99.90
2022-10-04T18:26:34.063Z,99.90
2022-10-04T18:29:07.197Z,99.90
2022-10-04T18:31:46.848Z,99.90
2022-10-04T18:34:28.878Z,99.90
2022-10-04T18:37:28.468Z,99.90
2022-10-04T18:40:15.079Z,99.90
2022-10-04T18:42:50.007Z,99.90
2022-10-04T18:45:24.993Z,99.90
2022-10-04T18:47:54.203Z,99.90
2022-10-04T18:50:22.113Z,99.90
2022-10-04T18:53:35.227Z,99.90
2022-10-04T18:56:10.987Z,99.90
2022-10-04T18:59:14.715Z,99.90
2022-10-04T19:02:22.097Z,99.90
2022-10-04T19:05:18.995Z,99.90
2022-10-04T19:08:05.127Z,99.90
2022-10-04T19:10:42.778Z,99.90
2022-10-04T19:13:40.495Z,99.90
2022-10-04T19:16:32.550Z,99.90
2022-10-04T19:19:27.918Z,99.90
2022-10-04T19:21:55.062Z,99.90
2022-10-04T19:24:35.398Z,99.90
2022-10-04T19:27:14.290Z,99.90
2022-10-04T19:29:44.605Z,99.90
2022-10-04T19:32:38.184Z,99.90
2022-10-04T19:35:36.340Z,99.90
2022-10-04T19:38:25.062Z,99.90
2022-10-04T19:41:13.753Z,99.90
2022-10-04T19:43:59.585Z,99.90
2022-10-04T19:46:54.070Z,99.90
2022-10-04T19:49:44.471Z,99.90
2022-10-04T19:52:21.889Z,99.90
2022-10-04T19:54:56.991Z,99.90
2022-10-04T19:57:37.009Z,99.90
2022-10-04T20:00:11.520Z,99.90
2022-10-04T20:02:48.195Z,99.90
2022-10-04T20:05:23.200Z,99.90
2022-10-04T20:07:55.824Z,99.90
2022-10-04T20:10:42.205Z,99.90
2022-10-04T20:13:18.875Z,99.90
2022-10-04T20:15:47.362Z,99.90
2022-10-04T20:18:31.410Z,99.90
2022-10-04T20:20:58.544Z,99.90
2022-10-04T20:23:38.346Z,99.90
2022-10-04T20:26:10.813Z,99.90
2022-10-04T20:28:41.348Z,99.90
2022-10-04T20:31:26.129Z,99.90
2022-10-04T20:33:53.762Z,99.90
2022-10-04T20:36:30.194Z,99.90
2022-10-04T20:39:02.395Z,99.90
2022-10-04T20:41:29.395Z,99.90
2022-10-04T20:43:57.478Z,99.90
2022-10-04T20:46:27.035Z,99.90
2022-10-04T20:48:56.929Z,99.90
2022-10-04T20:51:26.003Z,99.90
2022-10-04T20:53:53.428Z,99.90
2022-10-04T20:56:22.530Z,99.90
2022-10-04T20:58:58.442Z,99.90
2022-10-04T21:01:34.189Z,99.90
2022-10-04T21:04:24.489Z,99.90
2022-10-04T21:06:52.381Z,99.90
2022-10-04T21:09:19.804Z,99.90
2022-10-04T21:11:49.873Z,99.90
2022-10-04T21:14:27.090Z,99.90
2022-10-04T21:17:02.356Z,99.90
2022-10-04T21:19:32.875Z,99.90
2022-10-04T21:22:02.769Z,99.90
2022-10-04T21:24:42.744Z,99.90
2022-10-04T21:27:39.082Z,99.90
2022-10-04T21:30:14.622Z,99.90
2022-10-04T21:32:44.302Z,99.90
2022-10-04T21:35:12.776Z,99.90
2022-10-04T21:37:39.832Z,99.90
2022-10-04T21:40:07.843Z,99.90
2022-10-04T21:42:35.355Z,99.90
2022-10-04T21:45:04.942Z,99.90
2022-10-04T21:47:32.434Z,99.90
2022-10-04T21:49:59.490Z,99.90
2022-10-04T21:52:26.542Z,99.90
2022-10-04T21:54:56.240Z,99.90
2022-10-04T21:57:23.342Z,99.90
2022-10-04T21:59:50.346Z,99.90
2022-10-04T22:02:17.786Z,99.90
2022-10-04T22:04:45.075Z,99.90
2022-10-04T22:07:12.077Z,99.90
2022-10-04T22:09:39.627Z,99.90
2022-10-04T22:12:06.664Z,99.90
2022-10-04T22:14:33.712Z,99.90
2022-10-04T22:17:03.456Z,99.90
2022-10-04T22:19:32.780Z,99.90
2022-10-04T22:21:59.898Z,99.90
2022-10-04T22:24:27.454Z,99.90
2022-10-04T22:26:54.484Z,99.90
2022-10-04T22:29:21.515Z,99.90
2022-10-04T22:31:52.916Z,99.90
2022-10-04T22:34:21.681Z,99.90
2022-10-04T22:36:50.606Z,99.90
2022-10-04T22:39:21.414Z,99.90
2022-10-04T22:41:57.473Z,99.90
2022-10-04T22:44:38.844Z,99.90
2022-10-04T22:47:18.224Z,99.90
2022-10-04T22:49:52.132Z,99.90
2022-10-04T22:52:22.353Z,99.90
2022-10-04T22:54:51.430Z,99.90
2022-10-04T22:57:20.113Z,99.90
2022-10-04T22:59:51.861Z,99.90
2022-10-04T23:02:24.805Z,99.90
2022-10-04T23:04:54.383Z,99.90
2022-10-04T23:07:22.314Z,99.90
2022-10-04T23:09:49.492Z,99.90
2022-10-04T23:12:16.867Z,99.90
2022-10-04T23:14:44.280Z,99.90
2022-10-04T23:17:39.260Z,99.90
2022-10-04T23:20:19.656Z,99.90
2022-10-04T23:22:51.080Z,99.90
2022-10-04T23:25:26.079Z,99.90
2022-10-04T23:27:58.787Z,99.90
2022-10-04T23:30:29.059Z,99.90
2022-10-04T23:32:59.598Z,99.90
2022-10-04T23:35:32.791Z,99.90
2022-10-04T23:38:02.456Z,99.90
2022-10-04T23:40:31.530Z,99.90
2022-10-04T23:43:01.785Z,99.90
2022-10-04T23:45:32.230Z,99.90
2022-10-04T23:48:03.038Z,99.90
2022-10-04T23:50:37.521Z,99.90
2022-10-04T23:53:22.940Z,99.90
2022-10-04T23:55:50.640Z,99.90
2022-10-04T23:58:24.462Z,99.90
